This is the latest recevied weather packets stored in our database for station/object KD4PMP. If no packets are shown the sender has not sent any weather packets the latest 10 day(s).
| Time | Temp. | Humidity | Pressure | Rain* | Wind** | Luminosity | Snow |
|---|---|---|---|---|---|---|---|
| 1777413619 | 25° C | 79% | 1011.9 hPa | 0 mm | - | - | - |
| 1777413019 | 25° C | 78% | 1011.8 hPa | 0 mm | - | - | - |
| 1777412419 | 25.56° C | 77% | 1012.1 hPa | 0 mm | - | - | - |
| 1777411819 | 25.56° C | 76% | 1012.4 hPa | 0 mm | - | - | - |
| 1777411218 | 26.11° C | 74% | 1012.5 hPa | 0 mm | - | - | - |
| 1777410618 | 26.67° C | 70% | 1012.2 hPa | 0 mm | - | - | - |
| 1777410017 | 27.22° C | 70% | 1012.5 hPa | 0 mm | - | - | - |
| 1777409417 | 27.22° C | 69% | 1012.3 hPa | 0 mm | - | - | - |
| 1777408817 | 27.78° C | 69% | 1012.3 hPa | 0 mm | - | - | - |
| 1777408217 | 27.78° C | 68% | 1013 hPa | 0 mm | - | - | - |
| 1777407616 | 27.22° C | 70% | 1013.2 hPa | 0 mm | - | - | - |
| 1777407016 | 27.22° C | 69% | 1013.2 hPa | 0 mm | - | - | - |
| 1777406416 | 27.22° C | 71% | 1013.7 hPa | 0 mm | - | - | - |
| 1777405816 | 27.22° C | 70% | 1014.1 hPa | 0 mm | - | - | - |
| 1777405215 | 27.78° C | 68% | 1014.4 hPa | 0 mm | - | - | - |
| 1777404615 | 27.22° C | 70% | 1014.6 hPa | 0 mm | - | - | - |
| 1777404015 | 27.22° C | 70% | 1014.6 hPa | 0 mm | - | - | - |
| 1777403414 | 26.67° C | 71% | 1014.7 hPa | 0 mm | - | - | - |
| 1777402814 | 26.67° C | 70% | 1014.5 hPa | 0 mm | - | - | - |
| 1777402214 | 26.67° C | 73% | 1014.8 hPa | 0 mm | - | - | - |
| 1777401614 | 26.11° C | 73% | 1015 hPa | 0 mm | - | - | - |
| 1777401013 | 25.56° C | 74% | 1015.2 hPa | 0 mm | - | - | - |
| 1777400413 | 25.56° C | 75% | 1015.1 hPa | 0 mm | - | - | - |
| 1777399813 | 25.56° C | 75% | 1015.2 hPa | 0 mm | - | - | - |
| 1777399212 | 25.56° C | 75% | 1015.1 hPa | 0 mm | - | - | - |
* Rain latest hour (hover to see other rain measurements)
** Current wind speed in m/s (hover to see current wind gust speed)